Time;durP1;ratioP1;P1;durP2;ratioP2;P2;SDS_P1;SDS_P2;PMS_P1;PMS_P2;Temp;Humidity;BMP_temperature;BMP_pressure;BME280_temperature;BME280_humidity;BME280_pressure;Samples;Min_cycle;Max_cycle;Signal;HPM_P1;HPM_P2
2022/02/12 00:00:59;;;;;;;33.13;14.10;;;0.80;99.70;;;;;;5070980;28;20486;-66
2022/02/12 00:03:26;;;;;;;32.97;14.20;;;1.10;99.70;;;;;;5070989;28;20538;-67
2022/02/12 00:05:53;;;;;;;34.37;14.50;;;1.20;99.70;;;;;;5070672;28;20450;-67
2022/02/12 00:08:19;;;;;;;32.60;13.57;;;1.30;99.70;;;;;;5070772;28;20462;-67
2022/02/12 00:10:47;;;;;;;37.60;14.07;;;1.20;99.70;;;;;;5070977;28;20443;-67
2022/02/12 00:13:14;;;;;;;31.50;13.60;;;1.10;99.70;;;;;;5071231;28;20443;-66
2022/02/12 00:15:41;;;;;;;32.17;13.47;;;1.00;99.70;;;;;;5070775;28;20450;-67
2022/02/12 00:18:08;;;;;;;35.87;14.50;;;0.80;99.70;;;;;;5070189;28;20885;-67
2022/02/12 00:20:35;;;;;;;34.83;13.97;;;0.70;99.70;;;;;;5070806;28;20507;-67
2022/02/12 00:23:02;;;;;;;31.10;14.00;;;0.70;99.70;;;;;;5071405;28;20454;-66
2022/02/12 00:25:28;;;;;;;35.60;13.60;;;0.80;99.70;;;;;;5074441;28;20449;-66
2022/02/12 00:27:56;;;;;;;35.40;14.17;;;0.90;99.70;;;;;;5074528;28;20470;-67
2022/02/12 00:30:23;;;;;;;30.33;13.70;;;1.10;99.70;;;;;;5074630;28;20466;-67
2022/02/12 00:32:50;;;;;;;33.53;12.97;;;1.10;99.70;;;;;;5074939;28;20450;-67
2022/02/12 00:35:17;;;;;;;29.97;13.63;;;1.40;99.70;;;;;;5074311;28;20438;-67
2022/02/12 00:37:43;;;;;;;37.43;14.77;;;1.70;99.70;;;;;;5074323;28;20713;-67
2022/02/12 00:40:11;;;;;;;30.97;13.23;;;1.20;99.70;;;;;;5074368;28;20478;-67
2022/02/12 00:42:38;;;;;;;92.10;18.10;;;0.80;99.70;;;;;;5074474;28;20446;-66
2022/02/12 00:45:07;;;;;;;76.80;16.10;;;0.40;99.70;;;;;;5074085;28;20450;-66
2022/02/12 00:47:34;;;;;;;183.17;20.50;;;0.20;99.70;;;;;;5074191;28;20803;-66
2022/02/12 00:50:01;;;;;;;94.70;16.80;;;0.40;99.70;;;;;;5074312;28;20482;-67
2022/02/12 00:52:28;;;;;;;31.07;13.63;;;0.30;99.70;;;;;;5074226;28;20865;-67
2022/02/12 00:54:54;;;;;;;35.97;14.80;;;0.10;99.70;;;;;;5073927;28;20446;-67
2022/02/12 00:57:21;;;;;;;30.70;14.07;;;0.00;99.70;;;;;;5074196;28;20453;-66
2022/02/12 00:59:48;;;;;;;30.10;14.37;;;0.10;99.70;;;;;;5074007;28;20458;-66
2022/02/12 01:02:16;;;;;;;31.67;12.87;;;0.40;99.70;;;;;;5074135;28;20829;-67
2022/02/12 01:04:43;;;;;;;30.37;13.37;;;0.70;99.70;;;;;;5074094;28;20824;-67
2022/02/12 01:07:09;;;;;;;33.23;13.03;;;0.90;99.70;;;;;;5073675;28;20443;-67
2022/02/12 01:09:37;;;;;;;30.10;12.70;;;0.60;99.70;;;;;;5073751;28;20465;-67
2022/02/12 01:12:05;;;;;;;31.07;12.73;;;0.70;99.70;;;;;;5073996;28;20450;-67
2022/02/12 01:14:31;;;;;;;30.90;12.70;;;0.70;99.70;;;;;;5074043;28;20458;-66
2022/02/12 01:16:58;;;;;;;30.70;12.97;;;0.70;99.70;;;;;;5072864;28;20445;-66
2022/02/12 01:19:27;;;;;;;31.33;13.10;;;1.10;99.70;;;;;;5073603;28;20473;-66
2022/02/12 01:21:53;;;;;;;48.83;12.87;;;1.00;99.70;;;;;;5073984;28;20570;-67
2022/02/12 01:24:21;;;;;;;27.53;11.40;;;0.80;99.70;;;;;;5073658;28;20926;-66
2022/02/12 01:26:48;;;;;;;36.53;14.60;;;0.30;99.70;;;;;;5073300;28;20453;-67
2022/02/12 01:29:15;;;;;;;47.33;13.37;;;0.50;99.70;;;;;;5073542;28;20844;-66
2022/02/12 01:31:43;;;;;;;31.40;12.87;;;0.50;99.70;;;;;;5073609;28;20443;-67
2022/02/12 01:34:10;;;;;;;52.07;12.87;;;0.20;99.70;;;;;;5073507;28;20450;-66
2022/02/12 01:36:38;;;;;;;109.00;13.57;;;0.00;99.70;;;;;;5072562;28;20504;-67
2022/02/12 01:39:06;;;;;;;51.63;12.20;;;-0.20;99.70;;;;;;5073169;28;20475;-67
2022/02/12 01:41:33;;;;;;;33.37;12.20;;;-0.30;99.70;;;;;;5073389;28;20482;-66
2022/02/12 01:44:07;;;;;;;30.83;12.17;;;-0.30;99.70;;;;;;5073559;28;20474;-67
2022/02/12 01:46:34;;;;;;;27.63;11.43;;;0.30;99.70;;;;;;5073204;28;20446;-67
2022/02/12 01:49:00;;;;;;;45.83;12.00;;;0.10;99.70;;;;;;5073205;28;20494;-66
2022/02/12 01:51:28;;;;;;;31.43;11.90;;;-0.20;99.70;;;;;;5073298;28;20438;-66
2022/02/12 01:53:56;;;;;;;30.60;12.47;;;-0.50;99.70;;;;;;5073333;28;20442;-66
2022/02/12 01:56:23;;;;;;;26.77;12.00;;;-0.50;99.70;;;;;;5072871;28;20447;-66
2022/02/12 01:58:50;;;;;;;25.20;11.80;;;-0.70;99.70;;;;;;5072908;28;20818;-66
2022/02/12 02:01:17;;;;;;;28.67;12.10;;;-0.70;99.70;;;;;;5072981;28;21001;-67
2022/02/12 02:03:43;;;;;;;28.40;12.10;;;-0.80;99.70;;;;;;5073073;28;20469;-66
2022/02/12 02:06:10;;;;;;;30.43;12.80;;;-0.80;99.70;;;;;;5072648;28;20446;-67
2022/02/12 02:08:37;;;;;;;52.23;17.83;;;-0.60;99.70;;;;;;5072749;28;20998;-65
2022/02/12 02:11:05;;;;;;;41.00;15.27;;;0.10;99.70;;;;;;5072856;28;20508;-67
2022/02/12 02:13:32;;;;;;;256.63;19.43;;;-0.10;99.70;;;;;;5072804;28;20930;-66
2022/02/12 02:15:59;;;;;;;127.53;15.50;;;-0.50;99.70;;;;;;5071782;28;20501;-66
2022/02/12 02:18:26;;;;;;;246.87;19.17;;;-0.80;99.70;;;;;;5072445;28;20467;-66
2022/02/12 02:20:52;;;;;;;71.73;14.47;;;-1.00;99.70;;;;;;5072525;28;20900;-66
2022/02/12 02:23:20;;;;;;;44.63;14.20;;;-1.00;99.70;;;;;;5072740;28;20450;-66
2022/02/12 02:25:47;;;;;;;51.30;14.00;;;-1.00;99.70;;;;;;5072258;28;20447;-66
2022/02/12 02:28:14;;;;;;;36.73;12.87;;;-1.10;99.70;;;;;;5072280;28;20550;-66
2022/02/12 02:30:42;;;;;;;40.30;14.13;;;-1.20;99.70;;;;;;5072633;28;20435;-66
2022/02/12 02:33:09;;;;;;;28.40;12.30;;;-1.10;99.70;;;;;;5072392;28;20520;-67
2022/02/12 02:35:37;;;;;;;29.30;13.07;;;;;;;;;;5072307;28;20534;-66
2022/02/12 02:38:08;;;;;;;27.93;12.03;;;-1.20;99.70;;;;;;5072144;28;20470;-66
2022/02/12 02:40:37;;;;;;;30.33;12.77;;;-1.20;99.70;;;;;;5072349;28;20532;-66
2022/02/12 02:43:04;;;;;;;28.10;12.20;;;-1.10;99.70;;;;;;5072119;28;20447;-67
2022/02/12 02:45:32;;;;;;;27.77;11.63;;;-1.00;99.70;;;;;;5072030;28;20504;-66
2022/02/12 02:48:00;;;;;;;27.90;11.43;;;-0.90;99.70;;;;;;5070995;28;20966;-67
2022/02/12 02:56:08;;;;;;;28.50;12.40;;;-0.70;99.70;;;;;;5071804;28;20423;-66
2022/02/12 02:58:36;;;;;;;28.30;11.80;;;-0.70;99.70;;;;;;5071683;28;20813;-67
2022/02/12 03:01:06;;;;;;;26.70;11.50;;;-0.80;99.70;;;;;;5071702;28;20489;-67
2022/02/12 03:03:32;;;;;;;27.30;12.27;;;-0.90;99.70;;;;;;5071742;28;20447;-67
2022/02/12 03:05:59;;;;;;;25.87;10.93;;;-1.00;99.70;;;;;;5071494;28;20443;-67
2022/02/12 03:08:28;;;;;;;25.37;11.77;;;-1.10;99.70;;;;;;5071455;28;20471;-67
2022/02/12 03:10:55;;;;;;;26.40;11.63;;;-1.10;99.70;;;;;;5071631;28;20492;-66
2022/02/12 03:13:23;;;;;;;25.47;11.40;;;-1.20;99.70;;;;;;5071546;28;20443;-67
2022/02/12 03:15:50;;;;;;;38.10;12.53;;;-1.20;99.70;;;;;;5070913;28;20455;-64
2022/02/12 03:18:17;;;;;;;23.40;10.73;;;-1.10;99.70;;;;;;5071573;28;20459;-67
2022/02/12 03:20:43;;;;;;;25.30;11.40;;;-1.00;99.70;;;;;;5071564;28;20449;-66
2022/02/12 03:23:10;;;;;;;26.57;11.07;;;-1.20;99.70;;;;;;5071556;28;20447;-67
2022/02/12 03:25:37;;;;;;;25.73;11.50;;;-1.20;99.70;;;;;;5071175;28;20450;-67
2022/02/12 03:28:06;;;;;;;21.90;10.27;;;-1.20;99.70;;;;;;5071232;28;20475;-67
2022/02/12 03:30:39;;;;;;;24.90;10.37;;;-1.20;99.70;;;;;;5071542;28;20500;-67
2022/02/12 03:33:07;;;;;;;20.63;9.90;;;-1.00;99.70;;;;;;5071439;28;20446;-66
2022/02/12 03:35:34;;;;;;;23.67;10.47;;;-1.10;99.70;;;;;;5071009;28;20953;-67
2022/02/12 03:38:08;;;;;;;23.43;10.77;;;-1.30;99.70;;;;;;5071023;28;20982;-66
2022/02/12 03:40:36;;;;;;;23.73;10.20;;;-1.20;99.70;;;;;;5071160;28;20473;-66
2022/02/12 03:43:04;;;;;;;23.90;10.57;;;-1.20;99.70;;;;;;5071157;28;20466;-66
2022/02/12 03:45:30;;;;;;;24.10;10.80;;;-1.20;99.70;;;;;;5071008;28;20489;-66
2022/02/12 03:47:59;;;;;;;24.47;10.80;;;-1.30;99.70;;;;;;5071133;28;20713;-66
2022/02/12 03:50:27;;;;;;;27.30;11.10;;;-1.50;99.70;;;;;;5071318;28;20816;-66
2022/02/12 03:52:53;;;;;;;25.10;10.67;;;-1.50;99.70;;;;;;5071249;28;20434;-66
2022/02/12 03:55:20;;;;;;;26.43;10.93;;;-1.60;99.70;;;;;;5070824;28;20944;-66
2022/02/12 03:57:48;;;;;;;28.33;11.70;;;-1.60;99.70;;;;;;5071001;28;20463;-66
2022/02/12 04:00:16;;;;;;;24.73;10.03;;;-1.40;99.70;;;;;;5075272;28;20450;-66
2022/02/12 04:02:44;;;;;;;25.00;10.47;;;-0.60;99.70;;;;;;5075132;28;20486;-66
2022/02/12 04:05:15;;;;;;;26.47;10.60;;;-0.60;99.70;;;;;;5075046;28;20450;-66
2022/02/12 04:07:42;;;;;;;25.10;10.87;;;-0.70;99.70;;;;;;5075006;28;20452;-66
2022/02/12 04:10:11;;;;;;;21.60;10.37;;;-1.00;99.70;;;;;;5074947;28;20439;-66
2022/02/12 04:12:38;;;;;;;28.40;10.70;;;-1.30;99.70;;;;;;5075097;28;20524;-66
2022/02/12 04:15:05;;;;;;;26.30;10.73;;;-1.30;99.70;;;;;;5074783;28;20492;-66
2022/02/12 04:17:34;;;;;;;28.50;11.93;;;-0.60;99.70;;;;;;5074142;28;20450;-66
2022/02/12 04:20:02;;;;;;;22.97;10.47;;;-0.90;99.70;;;;;;5074907;28;20455;-66
2022/02/12 04:22:31;;;;;;;26.80;11.10;;;-1.20;99.70;;;;;;5074803;28;20483;-66
2022/02/12 04:24:58;;;;;;;24.80;10.67;;;-1.30;99.70;;;;;;5074496;28;20504;-66
2022/02/12 04:27:24;;;;;;;26.27;10.77;;;-1.50;99.70;;;;;;5074706;28;20830;-67
2022/02/12 04:29:51;;;;;;;28.20;11.63;;;-1.50;99.70;;;;;;5074644;28;20443;-66
2022/02/12 04:32:20;;;;;;;23.30;10.20;;;-1.60;99.70;;;;;;5074703;28;20446;-66
2022/02/12 04:34:47;;;;;;;26.07;10.60;;;-1.60;99.70;;;;;;5074370;28;20508;-65
2022/02/12 04:37:13;;;;;;;28.80;11.70;;;-1.70;99.70;;;;;;5074552;28;20442;-66
2022/02/12 04:39:41;;;;;;;29.53;11.60;;;-1.70;99.70;;;;;;5074116;28;20478;-66
2022/02/12 04:42:11;;;;;;;27.30;11.03;;;-1.70;99.70;;;;;;5074309;28;20478;-66
2022/02/12 04:44:38;;;;;;;24.10;10.70;;;-1.60;99.70;;;;;;5074397;28;21001;-67
2022/02/12 04:47:05;;;;;;;27.80;10.90;;;-1.80;99.70;;;;;;5074140;28;20541;-66
2022/02/12 04:49:32;;;;;;;27.40;10.77;;;-1.80;99.70;;;;;;5074161;28;20881;-66
2022/02/12 04:51:58;;;;;;;27.17;12.00;;;-1.90;99.70;;;;;;5074230;28;20435;-66
2022/02/12 04:54:25;;;;;;;31.43;12.87;;;-2.00;99.70;;;;;;5074186;28;20450;-66
2022/02/12 04:56:53;;;;;;;26.47;11.37;;;-1.90;99.70;;;;;;5073963;28;20515;-66
2022/02/12 04:59:20;;;;;;;26.17;11.17;;;-1.20;99.70;;;;;;5074052;28;20543;-67
2022/02/12 05:01:48;;;;;;;26.10;11.03;;;-1.50;99.70;;;;;;5074071;28;20477;-66
2022/02/12 05:04:14;;;;;;;29.90;11.23;;;-1.60;99.70;;;;;;5074142;28;20450;-66
2022/02/12 05:06:41;;;;;;;24.23;10.70;;;-1.80;99.70;;;;;;5073697;28;20447;-66
2022/02/12 05:09:08;;;;;;;22.60;9.47;;;-1.70;99.70;;;;;;5073472;28;20467;-66
2022/02/12 05:11:34;;;;;;;24.10;9.80;;;-1.80;99.70;;;;;;5073106;28;20441;-65
2022/02/12 05:14:02;;;;;;;27.07;10.33;;;-1.80;99.70;;;;;;5073810;28;20448;-67
2022/02/12 05:16:29;;;;;;;24.33;9.73;;;-1.90;99.70;;;;;;5072723;28;20446;-66
2022/02/12 05:18:56;;;;;;;24.40;10.20;;;-1.90;99.70;;;;;;5073735;28;20466;-66
2022/02/12 05:21:22;;;;;;;27.57;10.67;;;-1.30;99.70;;;;;;5073668;28;20450;-66
2022/02/12 05:23:49;;;;;;;25.73;10.03;;;-1.00;99.70;;;;;;5073678;28;20450;-66
2022/02/12 05:26:16;;;;;;;22.90;9.70;;;-1.50;99.70;;;;;;5073321;28;20442;-66
2022/02/12 05:28:43;;;;;;;23.03;10.20;;;-1.80;99.70;;;;;;5073595;28;20550;-67
2022/02/12 05:31:11;;;;;;;20.67;9.73;;;-2.00;99.70;;;;;;5073608;28;20439;-66
2022/02/12 05:33:38;;;;;;;21.17;9.83;;;-2.10;99.70;;;;;;5073606;28;20446;-67
2022/02/12 05:36:05;;;;;;;23.10;9.70;;;-2.30;99.70;;;;;;5073214;28;20516;-66
2022/02/12 05:38:32;;;;;;;22.70;9.80;;;-2.30;99.70;;;;;;5091628;22;20488;-68
2022/02/12 05:40:59;;;;;;;24.90;10.40;;;-2.30;99.70;;;;;;5052931;28;20452;-68
2022/02/12 05:43:26;;;;;;;23.13;10.20;;;-2.40;99.70;;;;;;5052773;28;20479;-69
2022/02/12 05:45:52;;;;;;;23.57;10.47;;;-2.40;99.70;;;;;;5052653;28;20486;-68
2022/02/12 05:48:21;;;;;;;20.50;9.57;;;-2.40;99.70;;;;;;5052518;28;20460;-68
2022/02/12 05:50:48;;;;;;;25.00;10.50;;;-2.50;99.70;;;;;;5052656;28;20462;-68
2022/02/12 05:53:14;;;;;;;24.80;9.87;;;-2.50;99.70;;;;;;5052743;28;20447;-68
2022/02/12 05:55:41;;;;;;;20.30;9.33;;;-2.50;99.70;;;;;;5052273;28;20452;-68
2022/02/12 05:58:08;;;;;;;20.57;10.27;;;-2.50;99.70;;;;;;5052305;28;20444;-68
2022/02/12 06:00:35;;;;;;;20.17;9.67;;;-2.50;99.70;;;;;;5052385;28;20455;-68
2022/02/12 06:03:02;;;;;;;26.30;10.30;;;-2.50;99.70;;;;;;5052386;28;20502;-68
2022/02/12 06:05:30;;;;;;;22.83;10.70;;;-2.50;99.70;;;;;;5052169;28;20512;-67
2022/02/12 06:07:59;;;;;;;25.53;10.87;;;-2.60;99.70;;;;;;5052131;28;20448;-68
2022/02/12 06:10:26;;;;;;;25.40;10.53;;;-2.60;99.70;;;;;;5052336;28;20440;-68
2022/02/12 06:12:53;;;;;;;22.57;9.93;;;-2.60;99.70;;;;;;5052246;28;20578;-68
2022/02/12 06:15:20;;;;;;;23.07;10.10;;;-2.60;99.70;;;;;;5051818;28;20443;-68
2022/02/12 06:17:47;;;;;;;26.83;9.93;;;-2.60;99.70;;;;;;5051240;28;20455;-68
2022/02/12 06:20:14;;;;;;;23.63;9.77;;;-2.60;99.70;;;;;;5051959;28;20471;-68
2022/02/12 06:22:42;;;;;;;29.73;10.37;;;-2.60;99.70;;;;;;5051780;28;20482;-68
2022/02/12 06:25:10;;;;;;;27.37;10.43;;;-2.60;99.70;;;;;;5051779;28;20450;-68
2022/02/12 06:27:37;;;;;;;23.63;10.00;;;-2.60;99.70;;;;;;5051900;28;20447;-69
2022/02/12 06:30:04;;;;;;;26.83;12.20;;;-2.60;99.70;;;;;;5051858;28;20476;-68
2022/02/12 06:32:31;;;;;;;36.97;11.77;;;-2.30;99.70;;;;;;5051922;28;20439;-68
2022/02/12 06:35:00;;;;;;;49.23;10.83;;;-1.90;99.70;;;;;;5051530;28;20945;-68
2022/02/12 06:37:27;;;;;;;66.97;11.43;;;-1.30;99.70;;;;;;5051625;28;20495;-69
2022/02/12 06:39:56;;;;;;;138.17;13.13;;;-1.20;99.70;;;;;;5051531;28;20928;-68
2022/02/12 06:42:22;;;;;;;285.80;17.00;;;-1.70;99.70;;;;;;5051638;28;20480;-69
2022/02/12 06:44:49;;;;;;;264.43;18.47;;;-2.00;99.70;;;;;;5051238;28;21012;-68
2022/02/12 06:47:16;;;;;;;351.50;20.00;;;-2.00;99.70;;;;;;5051717;28;20448;-68
2022/02/12 06:49:43;;;;;;;141.63;15.60;;;-2.00;99.70;;;;;;5051462;28;20470;-68
2022/02/12 06:52:09;;;;;;;174.10;17.27;;;-1.60;99.70;;;;;;5051466;28;20439;-69
2022/02/12 06:54:36;;;;;;;321.70;19.30;;;-1.10;99.70;;;;;;5051516;28;20447;-67
2022/02/12 06:57:04;;;;;;;65.73;12.60;;;-1.20;99.70;;;;;;5051221;28;20466;-68
2022/02/12 06:59:34;;;;;;;123.83;14.73;;;-1.20;99.70;;;;;;5051160;28;20505;-68
2022/02/12 07:02:01;;;;;;;337.83;20.40;;;-0.90;99.70;;;;;;5051653;28;20801;-68
2022/02/12 07:04:29;;;;;;;222.47;17.37;;;-1.00;99.70;;;;;;5051164;28;20444;-68
2022/02/12 07:06:55;;;;;;;138.20;15.80;;;-1.20;99.70;;;;;;5050875;28;20460;-68
2022/02/12 07:09:22;;;;;;;98.10;14.90;;;-1.30;99.70;;;;;;5051199;28;21009;-69
2022/02/12 07:11:49;;;;;;;336.00;19.77;;;-1.20;99.70;;;;;;5051199;28;20498;-69
2022/02/12 07:14:17;;;;;;;50.73;12.90;;;-1.30;99.70;;;;;;5051120;28;20436;-68
2022/02/12 07:16:44;;;;;;;66.60;13.90;;;-1.00;99.70;;;;;;5049993;28;20935;-68
2022/02/12 07:19:11;;;;;;;64.67;12.30;;;-0.20;99.70;;;;;;5050921;28;20554;-68
2022/02/12 07:21:38;;;;;;;117.80;14.57;;;-0.70;99.70;;;;;;5050960;28;20506;-68
2022/02/12 07:24:06;;;;;;;72.67;12.60;;;-0.70;99.70;;;;;;5050790;28;20487;-68
2022/02/12 07:26:32;;;;;;;130.00;15.70;;;-0.30;99.70;;;;;;5050696;28;20447;-68
2022/02/12 07:28:59;;;;;;;115.10;14.43;;;-0.30;99.70;;;;;;5050729;28;20979;-68
2022/02/12 07:31:27;;;;;;;198.00;16.10;;;-0.40;99.70;;;;;;5050862;28;20535;-69
2022/02/12 07:33:54;;;;;;;416.73;21.97;;;-0.50;99.70;;;;;;5050237;28;20444;-68
2022/02/12 07:36:20;;;;;;;109.23;13.60;;;-0.60;99.70;;;;;;5050526;28;20452;-68
2022/02/12 07:38:47;;;;;;;116.83;14.30;;;-0.70;99.70;;;;;;5050501;28;20474;-68
2022/02/12 07:41:16;;;;;;;120.23;15.20;;;-0.80;99.70;;;;;;5050675;28;20455;-68
2022/02/12 07:43:44;;;;;;;49.30;12.90;;;-0.60;99.70;;;;;;5050690;28;20578;-69
2022/02/12 07:46:11;;;;;;;52.67;15.70;;;-0.20;99.70;;;;;;5050441;28;20459;-69
2022/02/12 07:48:39;;;;;;;205.17;21.87;;;-0.40;99.70;;;;;;5050495;28;20471;-69
2022/02/12 07:51:07;;;;;;;219.30;24.97;;;-0.60;99.70;;;;;;5050711;28;20450;-68
2022/02/12 07:53:34;;;;;;;89.57;20.50;;;-0.50;99.70;;;;;;5050652;28;20497;-68
2022/02/12 07:56:01;;;;;;;133.70;23.13;;;-0.30;99.70;;;;;;5050384;28;20444;-68
2022/02/12 07:58:27;;;;;;;138.00;23.17;;;-0.40;99.70;;;;;;5050555;28;20804;-68
2022/02/12 08:00:54;;;;;;;75.27;20.20;;;-0.50;99.70;;;;;;5050619;28;20451;-68
2022/02/12 08:03:21;;;;;;;251.77;24.07;;;-0.40;99.70;;;;;;5050608;28;20527;-69
2022/02/12 08:05:49;;;;;;;105.27;18.10;;;-0.70;99.70;;;;;;5050181;28;20881;-68
2022/02/12 08:08:15;;;;;;;83.30;17.73;;;-0.70;99.70;;;;;;5050380;28;20468;-68
2022/02/12 08:13:27;;;;;;;124.60;17.53;;;-0.30;99.70;;;;;;5050813;28;20498;-69
2022/02/12 08:15:54;;;;;;;55.67;15.27;;;-0.60;99.70;;;;;;5049587;28;20534;-68
2022/02/12 08:18:20;;;;;;;62.43;15.80;;;-0.40;99.70;;;;;;5050485;28;20468;-68
2022/02/12 08:20:49;;;;;;;135.90;16.93;;;-0.30;99.70;;;;;;5050588;28;20447;-68
2022/02/12 08:23:17;;;;;;;56.23;15.20;;;0.40;99.70;;;;;;5050943;28;21033;-69
2022/02/12 08:25:44;;;;;;;46.90;14.30;;;0.80;99.70;;;;;;5050595;28;20538;-68
2022/02/12 08:28:10;;;;;;;41.83;15.37;;;0.90;99.70;;;;;;5050485;28;20714;-68
2022/02/12 08:30:37;;;;;;;39.33;15.17;;;0.50;99.70;;;;;;5050682;28;20439;-68
2022/02/12 08:33:04;;;;;;;38.30;15.00;;;0.00;99.70;;;;;;5050663;28;20435;-68
2022/02/12 08:35:30;;;;;;;40.37;16.07;;;-0.10;99.70;;;;;;5050380;28;20452;-68
2022/02/12 08:37:58;;;;;;;38.90;16.00;;;-0.20;99.70;;;;;;5050239;28;21254;-68
2022/02/12 08:40:25;;;;;;;35.37;13.77;;;-0.30;99.70;;;;;;5050495;28;20448;-68
2022/02/12 08:42:53;;;;;;;32.17;12.87;;;0.00;99.70;;;;;;5050462;28;20495;-68
2022/02/12 08:45:20;;;;;;;25.63;11.93;;;0.10;99.70;;;;;;5052737;28;20497;-68
2022/02/12 08:47:46;;;;;;;29.90;12.00;;;0.30;99.70;;;;;;5054098;28;20444;-68
2022/02/12 08:50:15;;;;;;;28.03;11.80;;;0.40;99.70;;;;;;5054054;28;20463;-68
2022/02/12 08:52:43;;;;;;;32.20;13.10;;;0.60;99.70;;;;;;5054080;28;20531;-68
2022/02/12 08:55:11;;;;;;;28.57;13.03;;;0.70;99.70;;;;;;5053811;28;20546;-68
2022/02/12 08:57:38;;;;;;;49.50;15.80;;;1.10;99.70;;;;;;5054043;28;20448;-66
2022/02/12 09:00:07;;;;;;;53.20;17.40;;;1.10;99.70;;;;;;5053104;28;20464;-68
2022/02/12 09:02:34;;;;;;;121.20;19.30;;;0.70;99.70;;;;;;5053463;28;20476;-67
2022/02/12 09:05:01;;;;;;;47.43;15.70;;;0.50;99.70;;;;;;5053106;28;20447;-68
2022/02/12 09:07:28;;;;;;;41.47;14.70;;;0.50;99.70;;;;;;5052817;28;20479;-68
2022/02/12 09:09:55;;;;;;;46.50;16.17;;;0.60;99.70;;;;;;5042938;28;20475;-68
2022/02/12 09:12:23;;;;;;;31.27;12.27;;;0.80;99.70;;;;;;5052068;28;20499;-68
2022/02/12 09:14:49;;;;;;;29.53;10.90;;;1.00;99.70;;;;;;5051150;28;20447;-68
2022/02/12 09:17:16;;;;;;;23.67;9.77;;;1.30;99.70;;;;;;5053338;28;20440;-68
2022/02/12 09:19:43;;;;;;;25.50;9.97;;;1.90;99.70;;;;;;5054884;28;20462;-68
2022/02/12 09:22:10;;;;;;;18.93;8.43;;;2.50;99.70;;;;;;5043242;28;20468;-69
2022/02/12 09:24:37;;;;;;;23.10;8.43;;;3.40;99.70;;;;;;5043436;28;20485;-68
2022/02/12 09:27:04;;;;;;;22.13;8.80;;;4.00;99.70;;;;;;5052643;28;20444;-68
2022/02/12 09:29:32;;;;;;;22.77;9.87;;;4.70;99.70;;;;;;5053067;28;20464;-69
2022/02/12 09:31:59;;;;;;;20.13;8.50;;;5.10;99.70;;;;;;5033323;28;20825;-68
2022/02/12 09:34:25;;;;;;;22.30;8.53;;;5.50;99.70;;;;;;5049741;28;20459;-68
2022/02/12 09:36:52;;;;;;;20.10;9.73;;;5.50;99.70;;;;;;5051344;28;20460;-68
2022/02/12 09:39:19;;;;;;;32.00;14.00;;;5.80;99.70;;;;;;5049583;28;20487;-68
2022/02/12 09:41:46;;;;;;;30.20;13.73;;;5.90;99.70;;;;;;5053029;28;20448;-68
2022/02/12 09:44:12;;;;;;;21.70;9.83;;;6.00;99.70;;;;;;5048873;28;20484;-69
2022/02/12 09:47:07;;;;;;;16.83;8.30;;;6.30;99.70;;;;;;5052883;28;20451;-68
2022/02/12 09:49:34;;;;;;;16.33;8.43;;;6.70;99.70;;;;;;5045141;28;20492;-68
2022/02/12 09:52:02;;;;;;;18.43;8.17;;;6.60;99.70;;;;;;5052872;28;20531;-68
2022/02/12 09:54:30;;;;;;;16.80;7.77;;;6.60;99.70;;;;;;5052548;28;21017;-68
2022/02/12 09:56:58;;;;;;;20.10;7.80;;;6.40;99.70;;;;;;5051314;28;20440;-68
2022/02/12 09:59:25;;;;;;;17.57;7.40;;;6.40;99.70;;;;;;5052618;28;20515;-68
2022/02/12 10:01:53;;;;;;;18.67;7.47;;;6.50;99.70;;;;;;5053003;28;20454;-68
2022/02/12 10:04:21;;;;;;;16.43;7.27;;;6.60;99.70;;;;;;5052534;28;20594;-68
2022/02/12 10:06:48;;;;;;;18.93;7.87;;;6.30;99.70;;;;;;5052718;28;20454;-68
2022/02/12 10:09:15;;;;;;;17.50;7.53;;;6.30;99.70;;;;;;5055416;28;20475;-68
2022/02/12 10:11:44;;;;;;;20.50;8.33;;;6.10;99.70;;;;;;5052840;28;20448;-67
2022/02/12 10:14:15;;;;;;;17.33;8.17;;;5.70;99.70;;;;;;5052557;28;20569;-68
2022/02/12 10:16:55;;;;;;;19.90;8.50;;;5.50;99.70;;;;;;5047897;28;20478;-67
2022/02/12 10:19:30;;;;;;;24.90;8.87;;;5.40;99.70;;;;;;5052944;28;20468;-68
2022/02/12 10:22:11;;;;;;;21.30;8.10;;;5.10;99.70;;;;;;5052422;28;20462;-68
2022/02/12 10:24:58;;;;;;;25.37;9.07;;;4.70;99.70;;;;;;5049433;28;20865;-67
2022/02/12 10:27:26;;;;;;;19.27;8.47;;;4.40;99.70;;;;;;5049181;28;20447;-68
2022/02/12 10:29:54;;;;;;;19.97;8.60;;;4.30;99.70;;;;;;5051141;28;20992;-70
2022/02/12 10:32:24;;;;;;;26.53;8.67;;;4.40;99.70;;;;;;5051515;28;20838;-68
2022/02/12 10:34:52;;;;;;;20.57;8.97;;;4.40;99.70;;;;;;5051313;28;20797;-68
2022/02/12 10:37:22;;;;;;;22.50;8.90;;;4.50;99.70;;;;;;5051721;28;21001;-68
2022/02/12 10:39:52;;;;;;;23.83;10.03;;;4.40;99.70;;;;;;5050975;28;20838;-68
2022/02/12 10:42:19;;;;;;;18.17;8.07;;;4.40;99.70;;;;;;5053122;28;20447;-69
2022/02/12 10:44:46;;;;;;;21.60;8.20;;;4.40;99.70;;;;;;5048548;28;20862;-66
2022/02/12 10:47:14;;;;;;;26.73;9.73;;;4.80;99.70;;;;;;5051203;28;20454;-68
2022/02/12 10:49:43;;;;;;;24.87;9.20;;;4.60;99.70;;;;;;5050165;28;20456;-68
2022/02/12 10:52:10;;;;;;;19.00;8.43;;;4.60;99.70;;;;;;5051428;28;20448;-68
2022/02/12 10:54:41;;;;;;;21.70;8.07;;;4.70;99.70;;;;;;5051208;28;20440;-68
2022/02/12 10:57:08;;;;;;;17.73;6.97;;;4.60;99.70;;;;;;5046977;28;20565;-68
2022/02/12 10:59:36;;;;;;;19.63;7.27;;;4.70;99.70;;;;;;5050469;28;20471;-68
2022/02/12 11:02:07;;;;;;;17.27;6.80;;;4.70;99.70;;;;;;5050789;28;20448;-69
2022/02/12 11:04:35;;;;;;;20.40;7.50;;;4.70;99.70;;;;;;5050960;28;20587;-69
2022/02/12 11:07:05;;;;;;;17.00;7.10;;;4.70;99.70;;;;;;5048303;28;20451;-68
2022/02/12 11:09:32;;;;;;;21.60;7.03;;;4.70;99.70;;;;;;5050221;28;20448;-68
2022/02/12 11:12:04;;;;;;;17.57;6.60;;;4.70;99.70;;;;;;5048389;28;20440;-68
2022/02/12 11:14:36;;;;;;;19.50;7.03;;;4.80;99.70;;;;;;5051099;28;20593;-68
2022/02/12 11:17:06;;;;;;;15.73;6.67;;;4.80;99.70;;;;;;5048056;28;20444;-68
2022/02/12 11:19:34;;;;;;;17.33;6.80;;;4.90;99.70;;;;;;5050614;28;20467;-68
2022/02/12 11:22:03;;;;;;;14.07;7.03;;;4.90;99.70;;;;;;5048263;28;20957;-68
2022/02/12 11:24:38;;;;;;;19.33;6.97;;;4.90;99.70;;;;;;5050779;28;20572;-69
2022/02/12 11:27:21;;;;;;;18.10;7.23;;;5.00;99.70;;;;;;5045781;28;20458;-68
2022/02/12 11:29:50;;;;;;;17.83;7.23;;;5.20;99.70;;;;;;5049845;28;20466;-69
2022/02/12 11:32:20;;;;;;;16.90;6.33;;;5.10;99.70;;;;;;5050665;28;20440;-68
2022/02/12 11:35:24;;;;;;;14.40;6.70;;;5.00;99.70;;;;;;5050690;28;20444;-67
2022/02/12 11:37:52;;;;;;;18.70;7.23;;;5.00;99.70;;;;;;5045384;28;20451;-69
2022/02/12 11:40:24;;;;;;;17.00;6.23;;;5.10;99.70;;;;;;5051553;28;20963;-68
2022/02/12 11:42:54;;;;;;;21.20;6.17;;;5.20;99.70;;;;;;5071183;28;20451;-68
2022/02/12 11:45:29;;;;;;;17.50;6.50;;;5.20;99.70;;;;;;5062530;28;20482;-68
2022/02/12 11:48:19;;;;;;;16.60;6.20;;;5.40;99.70;;;;;;5057947;28;20553;-68
2022/02/12 11:50:48;;;;;;;13.23;5.47;;;5.30;99.70;;;;;;5071233;28;20556;-69
2022/02/12 11:53:48;;;;;;;17.57;5.47;;;5.30;99.70;;;;;;5068189;28;20443;-69
2022/02/12 11:56:52;;;;;;;11.70;5.33;;;5.40;99.70;;;;;;4989239;28;20958;-68
2022/02/12 11:59:21;;;;;;;15.83;5.23;;;5.40;99.70;;;;;;5043114;28;20475;-69
2022/02/12 12:01:51;;;;;;;9.23;4.80;;;5.50;99.70;;;;;;5044289;28;20480;-69
2022/02/12 12:04:21;;;;;;;10.87;4.90;;;5.50;99.70;;;;;;5046716;28;20484;-69
2022/02/12 12:07:10;;;;;;;9.37;4.27;;;5.60;99.70;;;;;;5043020;28;20845;-69
2022/02/12 12:09:40;;;;;;;12.03;4.50;;;5.60;99.70;;;;;;5050328;28;20543;-69
2022/02/12 12:12:16;;;;;;;9.97;4.87;;;5.70;99.70;;;;;;5050838;28;20443;-70
2022/02/12 12:14:43;;;;;;;8.50;3.60;;;5.70;99.70;;;;;;5050580;28;20446;-69
2022/02/12 12:17:10;;;;;;;9.50;3.70;;;5.80;99.70;;;;;;5056947;28;20451;-69
2022/02/12 12:19:39;;;;;;;7.10;3.40;;;5.80;99.70;;;;;;5052533;28;21005;-69
2022/02/12 12:22:07;;;;;;;7.63;3.60;;;5.90;99.70;;;;;;5050887;28;20966;-69
2022/02/12 12:24:35;;;;;;;8.27;3.50;;;5.80;99.70;;;;;;5050425;28;20898;-68
2022/02/12 12:27:05;;;;;;;8.07;3.43;;;5.80;99.70;;;;;;5046236;28;20925;-69
2022/02/12 12:32:19;;;;;;;7.77;3.50;;;5.80;99.70;;;;;;5052008;28;20447;-69
2022/02/12 12:34:53;;;;;;;7.10;3.10;;;6.00;99.70;;;;;;5051558;28;20436;-68
2022/02/12 12:37:20;;;;;;;7.23;3.60;;;6.00;99.70;;;;;;5059429;28;20439;-69
2022/02/12 12:39:48;;;;;;;7.20;3.37;;;6.10;99.70;;;;;;5055636;28;20490;-69
2022/02/12 12:42:18;;;;;;;8.60;3.50;;;6.10;99.70;;;;;;5054033;28;20447;-67
2022/02/12 12:44:59;;;;;;;6.40;3.43;;;6.10;99.70;;;;;;5052512;28;20828;-69
2022/02/12 12:47:26;;;;;;;7.70;3.30;;;6.20;99.60;;;;;;5050561;28;20463;-69
2022/02/12 12:49:54;;;;;;;6.70;3.70;;;6.20;97.20;;;;;;5053418;28;20456;-70
2022/02/12 12:52:23;;;;;;;6.17;3.10;;;6.20;97.50;;;;;;5053939;28;20447;-70